PWSweather.com
Personal Weather Stations
Station Observations
KAZSIERR7
Canyon De Flores, Sierra Vista, AZ 85650

Canyon De FloresSierra Vista, AZ 85650

Lat: 31.5, Lon: -110.26

Elevation: 4645

Station Type: LaCrosse WS-3610 & Boltek Lightning Detector

http://www.lightningring.com/weather/

Latest ConditionsUpdated 11:37:35 PM MST Tuesday, Feb 9, 2016
Currently Today's Max Today's Min Today's Average
Temperature 52.9°F11.6°C 70.7°F21.5°C 44.6°F7.0°C 54.8°F12.7°C
Dew Point 18.5°F-7.5°C 21.4°F-5.9°C 13.6°F-10.2°C 18.9°F-7.3°C
Winds 0.5 mph SE0.8 kmh SE 6.3 mph NE10.1 kmh NE - 1.9 mph 3.1 kmh
Wind Gusts 4.6 mph7.4 kmh 12.5 mph20.1 kmh - -
Humidity 26% 38% 12% 27%
Pressure 30.27 in1025.1 mb 30.27 in1025.1 mb 30.20 in1022.7 mb -
Hour Temp Dew Point Humidity Winds Wind Gusts Pressure Precip Precip Rate Daily Precip Total
11:37 PM 52.9°F11.6°C 18.5°F-7.5°C 26% 0.5 mph SE0.8 kmh SE 4.6 mph7.4 kmh 30.27 in1025.1 mb 0.00 in0.0 mm 0.00 in0.0 mm 0.00 in0.0 mm
11:32 PM 52.9°F11.6°C 18.5°F-7.5°C 26% 1.7 mph S2.7 kmh S 4.6 mph7.4 kmh 30.26 in1024.7 mb 0.00 in0.0 mm 0.00 in0.0 mm 0.00 in0.0 mm
11:27 PM 50.4°F10.2°C 19.0°F-7.2°C 29% Calm Calm 2.0 mph3.2 kmh 30.26 in1024.7 mb 0.00 in0.0 mm 0.00 in0.0 mm 0.00 in0.0 mm
11:21 PM 47.7°F8.7°C 19.0°F-7.2°C 32% 2.0 mph S3.2 kmh S 2.0 mph3.2 kmh 30.26 in1024.7 mb 0.00 in0.0 mm 0.00 in0.0 mm 0.00 in0.0 mm
11:16 PM 46.6°F8.1°C 19.4°F-7.0°C 34% Calm Calm -- 30.26 in1024.7 mb 0.00 in0.0 mm 0.00 in0.0 mm 0.00 in0.0 mm
11:11 PM 47.5°F8.6°C 18.9°F-7.3°C 32% Calm Calm 1.3 mph2.1 kmh 30.26 in1024.7 mb 0.00 in0.0 mm 0.00 in0.0 mm 0.00 in0.0 mm
11:06 PM 49.1°F9.5°C 19.6°F-6.9°C 31% Calm Calm 4.0 mph6.4 kmh 30.27 in1025.1 mb 0.00 in0.0 mm 0.00 in0.0 mm 0.00 in0.0 mm
11:00 PM 52.9°F11.6°C 19.4°F-7.0°C 27% 1.9 mph SW3.1 kmh SW 4.0 mph6.4 kmh 30.27 in1025.1 mb 0.00 in0.0 mm 0.00 in0.0 mm 0.00 in0.0 mm
10:55 PM 52.7°F11.5°C 19.2°F-7.1°C 27% 2.9 mph S4.7 kmh S 3.5 mph5.6 kmh 30.27 in1025.1 mb 0.00 in0.0 mm 0.00 in0.0 mm 0.00 in0.0 mm
10:49 PM 50.4°F10.2°C 19.0°F-7.2°C 29% 2.4 mph S3.9 kmh S 3.1 mph5.0 kmh 30.27 in1025.1 mb 0.00 in0.0 mm 0.00 in0.0 mm 0.00 in0.0 mm
10:44 PM 46.6°F8.1°C 20.1°F-6.6°C 35% 2.6 mph S4.2 kmh S 2.6 mph4.2 kmh 30.27 in1025.1 mb 0.00 in0.0 mm 0.00 in0.0 mm 0.00 in0.0 mm
10:39 PM 44.6°F7.0°C 20.3°F-6.5°C 38% Calm Calm -- 30.27 in1025.1 mb 0.00 in0.0 mm 0.00 in0.0 mm 0.00 in0.0 mm
10:34 PM 44.8°F7.1°C 20.5°F-6.4°C 38% Calm Calm -- 30.27 in1025.1 mb 0.00 in0.0 mm 0.00 in0.0 mm 0.00 in0.0 mm
10:29 PM 44.8°F7.1°C 20.5°F-6.4°C 38% Calm Calm -- 30.27 in1025.1 mb 0.00 in0.0 mm 0.00 in0.0 mm 0.00 in0.0 mm
10:23 PM 45.1°F7.3°C 20.1°F-6.6°C 37% Calm Calm -- 30.27 in1025.1 mb 0.00 in0.0 mm 0.00 in0.0 mm 0.00 in0.0 mm
10:18 PM 45.1°F7.3°C 20.1°F-6.6°C 37% Calm Calm -- 30.27 in1025.1 mb 0.00 in0.0 mm 0.00 in0.0 mm 0.00 in0.0 mm
10:13 PM 45.3°F7.4°C 20.3°F-6.5°C 37% Calm Calm -- 30.27 in1025.1 mb 0.00 in0.0 mm 0.00 in0.0 mm 0.00 in0.0 mm
10:08 PM 45.3°F7.4°C 20.3°F-6.5°C 37% Calm Calm -- 30.27 in1025.1 mb 0.00 in0.0 mm 0.00 in0.0 mm 0.00 in0.0 mm
10:02 PM 45.7°F7.6°C 20.7°F-6.3°C 37% Calm Calm -- 30.27 in1025.1 mb 0.00 in0.0 mm 0.00 in0.0 mm 0.00 in0.0 mm
09:57 PM 45.3°F7.4°C 20.3°F-6.5°C 37% Calm Calm -- 30.26 in1024.7 mb 0.00 in0.0 mm 0.00 in0.0 mm 0.00 in0.0 mm
09:52 PM 46.0°F7.8°C 21.0°F-6.1°C 37% Calm Calm -- 30.27 in1025.1 mb 0.00 in0.0 mm 0.00 in0.0 mm 0.00 in0.0 mm
09:47 PM 45.9°F7.7°C 20.8°F-6.2°C 37% Calm Calm 2.0 mph3.2 kmh 30.26 in1024.7 mb 0.00 in0.0 mm 0.00 in0.0 mm 0.00 in0.0 mm
09:41 PM 45.5°F7.5°C 20.5°F-6.4°C 37% Calm Calm 2.0 mph3.2 kmh 30.26 in1024.7 mb 0.00 in0.0 mm 0.00 in0.0 mm 0.00 in0.0 mm
09:36 PM 46.0°F7.8°C 20.3°F-6.5°C 36% Calm Calm -- 30.26 in1024.7 mb 0.00 in0.0 mm 0.00 in0.0 mm 0.00 in0.0 mm
09:31 PM 46.4°F8.0°C 19.9°F-6.7°C 36% Calm Calm -- 30.26 in1024.7 mb 0.00 in0.0 mm 0.00 in0.0 mm 0.00 in0.0 mm
09:26 PM 46.8°F8.2°C 19.6°F-6.9°C 34% Calm Calm -- 30.26 in1024.7 mb 0.00 in0.0 mm 0.00 in0.0 mm 0.00 in0.0 mm
09:20 PM 47.5°F8.6°C 20.3°F-6.5°C 33% Calm Calm -- 30.26 in1024.7 mb 0.00 in0.0 mm 0.00 in0.0 mm 0.00 in0.0 mm
09:15 PM 48.0°F8.9°C 20.1°F-6.6°C 33% Calm Calm -- 30.26 in1024.7 mb 0.00 in0.0 mm 0.00 in0.0 mm 0.00 in0.0 mm
09:10 PM 48.4°F9.1°C 19.8°F-6.8°C 32% Calm Calm 2.6 mph4.2 kmh 30.26 in1024.7 mb 0.00 in0.0 mm 0.00 in0.0 mm 0.00 in0.0 mm
09:05 PM 49.1°F9.5°C 20.3°F-6.5°C 32% 2.6 mph WSW4.2 kmh WSW 3.1 mph5.0 kmh 30.26 in1024.7 mb 0.00 in0.0 mm 0.00 in0.0 mm 0.00 in0.0 mm
08:59 PM 49.6°F9.8°C 20.7°F-6.3°C 32% 2.6 mph SW4.2 kmh SW 3.1 mph5.0 kmh 30.25 in1024.4 mb 0.00 in0.0 mm 0.00 in0.0 mm 0.00 in0.0 mm
08:54 PM 49.6°F9.8°C 20.7°F-6.3°C 32% 1.5 mph WSW2.4 kmh WSW 3.1 mph5.0 kmh 30.25 in1024.4 mb 0.00 in0.0 mm 0.00 in0.0 mm 0.00 in0.0 mm
08:49 PM 49.8°F9.9°C 20.8°F-6.2°C 32% 2.3 mph WSW3.7 kmh WSW 2.9 mph4.7 kmh 30.25 in1024.4 mb 0.00 in0.0 mm 0.00 in0.0 mm 0.00 in0.0 mm
08:44 PM 50.2°F10.1°C 21.2°F-6.0°C 32% 1.4 mph WSW2.3 kmh WSW 3.1 mph5.0 kmh 30.25 in1024.4 mb 0.00 in0.0 mm 0.00 in0.0 mm 0.00 in0.0 mm
08:38 PM 50.4°F10.2°C 20.7°F-6.3°C 31% 2.2 mph WSW3.5 kmh WSW 4.2 mph6.8 kmh 30.25 in1024.4 mb 0.00 in0.0 mm 0.00 in0.0 mm 0.00 in0.0 mm
08:33 PM 50.2°F10.1°C 20.5°F-6.4°C 31% 3.2 mph WSW5.1 kmh WSW 4.2 mph6.8 kmh 30.25 in1024.4 mb 0.00 in0.0 mm 0.00 in0.0 mm 0.00 in0.0 mm
08:28 PM 50.5°F10.3°C 20.1°F-6.6°C 30% 2.2 mph WSW3.5 kmh WSW 3.5 mph5.6 kmh 30.25 in1024.4 mb 0.00 in0.0 mm 0.00 in0.0 mm 0.00 in0.0 mm
08:21 PM 50.7°F10.4°C 20.3°F-6.5°C 30% 2.1 mph SW3.4 kmh SW 3.5 mph5.6 kmh 30.25 in1024.4 mb 0.00 in0.0 mm 0.00 in0.0 mm 0.00 in0.0 mm
08:16 PM 50.7°F10.4°C 20.3°F-6.5°C 30% 3.1 mph SW5.0 kmh SW 3.3 mph5.3 kmh 30.25 in1024.4 mb 0.00 in0.0 mm 0.00 in0.0 mm 0.00 in0.0 mm
08:11 PM 50.9°F10.5°C 20.5°F-6.4°C 30% 2.9 mph SW4.7 kmh SW 2.9 mph4.7 kmh 30.25 in1024.4 mb 0.00 in0.0 mm 0.00 in0.0 mm 0.00 in0.0 mm
08:06 PM 50.9°F10.5°C 20.5°F-6.4°C 30% 1.5 mph SW2.4 kmh SW 2.9 mph4.7 kmh 30.24 in1024.0 mb 0.00 in0.0 mm 0.00 in0.0 mm 0.00 in0.0 mm
08:00 PM 50.9°F10.5°C 20.5°F-6.4°C 30% 2.9 mph SSW4.7 kmh SSW 2.9 mph4.7 kmh 30.24 in1024.0 mb 0.00 in0.0 mm 0.00 in0.0 mm 0.00 in0.0 mm
07:55 PM 50.9°F10.5°C 20.5°F-6.4°C 30% 1.6 mph WSW2.6 kmh WSW 3.8 mph6.1 kmh 30.24 in1024.0 mb 0.00 in0.0 mm 0.00 in0.0 mm 0.00 in0.0 mm
07:50 PM 51.1°F10.6°C 20.7°F-6.3°C 30% 2.9 mph SW4.7 kmh SW 3.8 mph6.1 kmh 30.25 in1024.4 mb 0.00 in0.0 mm 0.00 in0.0 mm 0.00 in0.0 mm
07:45 PM 51.4°F10.8°C 20.1°F-6.6°C 29% 3.5 mph WSW5.6 kmh WSW 3.5 mph5.6 kmh 30.25 in1024.4 mb 0.00 in0.0 mm 0.00 in0.0 mm 0.00 in0.0 mm
07:39 PM 51.4°F10.8°C 20.1°F-6.6°C 29% 2.0 mph WSW3.2 kmh WSW 3.3 mph5.3 kmh 30.24 in1024.0 mb 0.00 in0.0 mm 0.00 in0.0 mm 0.00 in0.0 mm
07:34 PM 51.6°F10.9°C 21.2°F-6.0°C 29% 2.3 mph SW3.7 kmh SW 3.3 mph5.3 kmh 30.24 in1024.0 mb 0.00 in0.0 mm 0.00 in0.0 mm 0.00 in0.0 mm
07:29 PM 51.4°F10.8°C 21.0°F-6.1°C 29% 2.7 mph SW4.3 kmh SW 3.3 mph5.3 kmh 30.24 in1024.0 mb 0.00 in0.0 mm 0.00 in0.0 mm 0.00 in0.0 mm
07:23 PM 51.6°F10.9°C 20.1°F-6.6°C 29% Calm Calm 3.3 mph5.3 kmh 30.23 in1023.7 mb 0.00 in0.0 mm 0.00 in0.0 mm 0.00 in0.0 mm
07:18 PM 52.0°F11.1°C 20.5°F-6.4°C 29% 3.2 mph WSW5.1 kmh WSW 3.5 mph5.6 kmh 30.24 in1024.0 mb 0.00 in0.0 mm 0.00 in0.0 mm 0.00 in0.0 mm
07:13 PM 52.5°F11.4°C 21.0°F-6.1°C 29% 1.2 mph WSW1.9 kmh WSW 3.5 mph5.6 kmh 30.24 in1024.0 mb 0.00 in0.0 mm 0.00 in0.0 mm 0.00 in0.0 mm
07:08 PM 52.9°F11.6°C 21.4°F-5.9°C 29% 3.4 mph WSW5.5 kmh WSW 4.0 mph6.4 kmh 30.24 in1024.0 mb 0.00 in0.0 mm 0.00 in0.0 mm 0.00 in0.0 mm
07:03 PM 53.2°F11.8°C 20.7°F-6.3°C 28% 2.4 mph SW3.9 kmh SW 4.0 mph6.4 kmh 30.23 in1023.7 mb 0.00 in0.0 mm 0.00 in0.0 mm 0.00 in0.0 mm
06:57 PM 53.8°F12.1°C 21.2°F-6.0°C 28% 2.6 mph SW4.2 kmh SW 3.1 mph5.0 kmh 30.23 in1023.7 mb 0.00 in0.0 mm 0.00 in0.0 mm 0.00 in0.0 mm
06:52 PM 54.0°F12.2°C 21.4°F-5.9°C 28% 1.3 mph WSW2.1 kmh WSW 3.3 mph5.3 kmh 30.23 in1023.7 mb 0.00 in0.0 mm 0.00 in0.0 mm 0.00 in0.0 mm
06:47 PM 54.7°F12.6°C 21.0°F-6.1°C 27% 3.3 mph SW5.3 kmh SW 3.3 mph5.3 kmh 30.22 in1023.4 mb 0.00 in0.0 mm 0.00 in0.0 mm 0.00 in0.0 mm
06:42 PM 55.0°F12.8°C 21.2°F-6.0°C 27% 1.8 mph WSW2.9 kmh WSW 4.6 mph7.4 kmh 30.23 in1023.7 mb 0.00 in0.0 mm 0.00 in0.0 mm 0.00 in0.0 mm
06:36 PM 55.8°F13.2°C 20.8°F-6.2°C 26% 1.1 mph SW1.8 kmh SW 4.6 mph7.4 kmh 30.22 in1023.4 mb 0.00 in0.0 mm 0.00 in0.0 mm 0.00 in0.0 mm
06:31 PM 57.0°F13.9°C 21.0°F-6.1°C 25% 2.4 mph WSW3.9 kmh WSW 3.3 mph5.3 kmh 30.22 in1023.4 mb 0.00 in0.0 mm 0.00 in0.0 mm 0.00 in0.0 mm
06:26 PM 58.1°F14.5°C 21.0°F-6.1°C 24% 3.1 mph WSW5.0 kmh WSW 3.5 mph5.6 kmh 30.22 in1023.4 mb 0.00 in0.0 mm 0.00 in0.0 mm 0.00 in0.0 mm
06:21 PM 60.4°F15.8°C 20.1°F-6.6°C 21% 3.3 mph WSW5.3 kmh WSW 3.5 mph5.6 kmh 30.22 in1023.4 mb 0.00 in0.0 mm 0.00 in0.0 mm 0.00 in0.0 mm
06:15 PM 62.2°F16.8°C 17.6°F-8.0°C 18% 3.5 mph WSW5.6 kmh WSW 3.5 mph5.6 kmh 30.22 in1023.4 mb 0.00 in0.0 mm 0.00 in0.0 mm 0.00 in0.0 mm
06:10 PM 64.0°F17.8°C 15.8°F-9.0°C 16% Calm Calm 1.7 mph2.7 kmh 30.22 in1023.4 mb 0.00 in0.0 mm 0.00 in0.0 mm 0.00 in0.0 mm
06:05 PM 64.8°F18.2°C 16.3°F-8.7°C 16% 1.5 mph NE2.4 kmh NE 3.3 mph5.3 kmh 30.22 in1023.4 mb 0.00 in0.0 mm 0.00 in0.0 mm 0.00 in0.0 mm
06:00 PM 65.5°F18.6°C 16.9°F-8.4°C 16% 2.0 mph NE3.2 kmh NE 5.3 mph8.5 kmh 30.22 in1023.4 mb 0.00 in0.0 mm 0.00 in0.0 mm 0.00 in0.0 mm
05:54 PM 66.0°F18.9°C 14.2°F-9.9°C 14% 3.6 mph NNE5.8 kmh NNE 5.3 mph8.5 kmh 30.22 in1023.4 mb 0.00 in0.0 mm 0.00 in0.0 mm 0.00 in0.0 mm
05:49 PM 66.6°F19.2°C 16.2°F-8.8°C 15% 1.2 mph NE1.9 kmh NE 4.6 mph7.4 kmh 30.22 in1023.4 mb 0.00 in0.0 mm 0.00 in0.0 mm 0.00 in0.0 mm
05:44 PM 67.5°F19.7°C 15.4°F-9.2°C 14% 3.7 mph NE6.0 kmh NE 4.2 mph6.8 kmh 30.22 in1023.4 mb 0.00 in0.0 mm 0.00 in0.0 mm 0.00 in0.0 mm
05:39 PM 67.8°F19.9°C 14.0°F-10.0°C 13% 4.1 mph NNE6.6 kmh NNE 6.4 mph10.3 kmh 30.22 in1023.4 mb 0.00 in0.0 mm 0.00 in0.0 mm 0.00 in0.0 mm
05:33 PM 68.5°F20.3°C 14.5°F-9.7°C 13% 3.8 mph NNE6.1 kmh NNE 6.4 mph10.3 kmh 30.22 in1023.4 mb 0.00 in0.0 mm 0.00 in0.0 mm 0.00 in0.0 mm
05:28 PM 68.5°F20.3°C 14.5°F-9.7°C 13% 3.1 mph NNE5.0 kmh NNE 3.8 mph6.1 kmh 30.22 in1023.4 mb 0.00 in0.0 mm 0.00 in0.0 mm 0.00 in0.0 mm
05:23 PM 69.1°F20.6°C 15.1°F-9.4°C 13% 1.3 mph NE2.1 kmh NE 5.1 mph8.2 kmh 30.22 in1023.4 mb 0.00 in0.0 mm 0.00 in0.0 mm 0.00 in0.0 mm
05:18 PM 69.1°F20.6°C 15.1°F-9.4°C 13% 3.2 mph NE5.1 kmh NE 9.8 mph15.8 kmh 30.21 in1023.0 mb 0.00 in0.0 mm 0.00 in0.0 mm 0.00 in0.0 mm
05:12 PM 69.4°F20.8°C 13.6°F-10.2°C 12% 6.3 mph NE10.1 kmh NE 9.8 mph15.8 kmh 30.22 in1023.4 mb 0.00 in0.0 mm 0.00 in0.0 mm 0.00 in0.0 mm
05:07 PM 69.4°F20.8°C 13.6°F-10.2°C 12% 4.5 mph NNE7.2 kmh NNE 5.3 mph8.5 kmh 30.21 in1023.0 mb 0.00 in0.0 mm 0.00 in0.0 mm 0.00 in0.0 mm
05:02 PM 70.2°F21.2°C 14.2°F-9.9°C 12% 3.8 mph ENE6.1 kmh ENE 4.0 mph6.4 kmh 30.21 in1023.0 mb 0.00 in0.0 mm 0.00 in0.0 mm 0.00 in0.0 mm
04:57 PM 70.1°F21.2°C 14.9°F-9.5°C 12% 3.9 mph NE6.3 kmh NE 12.5 mph20.1 kmh 30.21 in1023.0 mb 0.00 in0.0 mm 0.00 in0.0 mm 0.00 in0.0 mm
04:51 PM 70.1°F21.2°C 14.9°F-9.5°C 12% 3.5 mph NNE5.6 kmh NNE 12.5 mph20.1 kmh 30.21 in1023.0 mb 0.00 in0.0 mm 0.00 in0.0 mm 0.00 in0.0 mm
04:46 PM 70.3°F21.3°C 15.1°F-9.4°C 12% 3.8 mph NE6.1 kmh NE 9.1 mph14.6 kmh 30.21 in1023.0 mb 0.00 in0.0 mm 0.00 in0.0 mm 0.00 in0.0 mm
04:41 PM 70.4°F21.3°C 15.2°F-9.3°C 12% 5.2 mph NE8.4 kmh NE 9.1 mph14.6 kmh 30.21 in1023.0 mb 0.00 in0.0 mm 0.00 in0.0 mm 0.00 in0.0 mm
04:36 PM 70.6°F21.4°C 15.3°F-9.3°C 12% 3.0 mph NE4.8 kmh NE 3.8 mph6.1 kmh 30.21 in1023.0 mb 0.00 in0.0 mm 0.00 in0.0 mm 0.00 in0.0 mm
04:30 PM 70.1°F21.2°C 15.0°F-9.4°C 12% 1.5 mph ESE2.4 kmh ESE 3.8 mph6.1 kmh 30.20 in1022.7 mb 0.00 in0.0 mm 0.00 in0.0 mm 0.00 in0.0 mm
04:25 PM 70.7°F21.5°C 15.4°F-9.2°C 12% Calm Calm -- 30.21 in1023.0 mb 0.00 in0.0 mm 0.00 in0.0 mm 0.00 in0.0 mm